sensor_id;sensor_type;location;lat;lon;timestamp;P1;durP1;ratioP1;P2;durP2;ratioP2
28862;SDS011;15994;51.796;13.006;2023-11-21T00:00:23;13.20;;;4.40;;
28862;SDS011;15994;51.796;13.006;2023-11-21T00:02:50;14.02;;;4.68;;
28862;SDS011;15994;51.796;13.006;2023-11-21T00:05:17;12.63;;;4.50;;
28862;SDS011;15994;51.796;13.006;2023-11-21T00:07:44;10.93;;;4.82;;
28862;SDS011;15994;51.796;13.006;2023-11-21T00:10:12;7.70;;;4.10;;
28862;SDS011;15994;51.796;13.006;2023-11-21T00:12:40;9.98;;;4.05;;
28862;SDS011;15994;51.796;13.006;2023-11-21T00:15:08;9.40;;;4.07;;
28862;SDS011;15994;51.796;13.006;2023-11-21T00:17:36;12.18;;;4.00;;
28862;SDS011;15994;51.796;13.006;2023-11-21T00:20:04;13.68;;;4.18;;
28862;SDS011;15994;51.796;13.006;2023-11-21T00:22:35;13.48;;;4.40;;
28862;SDS011;15994;51.796;13.006;2023-11-21T00:25:05;13.13;;;4.47;;
28862;SDS011;15994;51.796;13.006;2023-11-21T00:27:33;11.35;;;4.47;;
28862;SDS011;15994;51.796;13.006;2023-11-21T00:30:01;13.02;;;4.55;;
28862;SDS011;15994;51.796;13.006;2023-11-21T00:32:29;13.02;;;4.65;;
28862;SDS011;15994;51.796;13.006;2023-11-21T00:34:56;12.48;;;4.82;;
28862;SDS011;15994;51.796;13.006;2023-11-21T00:37:24;14.63;;;4.65;;
28862;SDS011;15994;51.796;13.006;2023-11-21T00:39:51;11.82;;;4.47;;
28862;SDS011;15994;51.796;13.006;2023-11-21T00:42:18;12.60;;;4.25;;
28862;SDS011;15994;51.796;13.006;2023-11-21T00:44:46;11.90;;;4.63;;
28862;SDS011;15994;51.796;13.006;2023-11-21T00:47:13;14.25;;;5.28;;
28862;SDS011;15994;51.796;13.006;2023-11-21T00:49:40;11.85;;;4.60;;
28862;SDS011;15994;51.796;13.006;2023-11-21T00:52:08;13.20;;;5.28;;
28862;SDS011;15994;51.796;13.006;2023-11-21T00:54:35;13.80;;;4.65;;
28862;SDS011;15994;51.796;13.006;2023-11-21T00:57:02;11.05;;;4.28;;
28862;SDS011;15994;51.796;13.006;2023-11-21T00:59:29;11.10;;;4.55;;
28862;SDS011;15994;51.796;13.006;2023-11-21T01:01:56;17.73;;;4.72;;
28862;SDS011;15994;51.796;13.006;2023-11-21T01:04:25;10.52;;;4.63;;
28862;SDS011;15994;51.796;13.006;2023-11-21T01:06:52;15.55;;;4.70;;
28862;SDS011;15994;51.796;13.006;2023-11-21T01:09:27;15.25;;;4.80;;
28862;SDS011;15994;51.796;13.006;2023-11-21T01:14:22;13.38;;;4.72;;
28862;SDS011;15994;51.796;13.006;2023-11-21T01:16:51;14.80;;;4.80;;
28862;SDS011;15994;51.796;13.006;2023-11-21T01:19:18;12.70;;;4.50;;
28862;SDS011;15994;51.796;13.006;2023-11-21T01:21:45;11.00;;;4.40;;
28862;SDS011;15994;51.796;13.006;2023-11-21T01:24:12;16.88;;;4.75;;
28862;SDS011;15994;51.796;13.006;2023-11-21T01:26:39;15.73;;;5.15;;
28862;SDS011;15994;51.796;13.006;2023-11-21T01:29:06;10.20;;;4.80;;
28862;SDS011;15994;51.796;13.006;2023-11-21T01:31:33;13.38;;;5.32;;
28862;SDS011;15994;51.796;13.006;2023-11-21T01:34:00;13.73;;;5.03;;
28862;SDS011;15994;51.796;13.006;2023-11-21T01:36:31;15.52;;;5.20;;
28862;SDS011;15994;51.796;13.006;2023-11-21T01:38:58;17.92;;;5.65;;
28862;SDS011;15994;51.796;13.006;2023-11-21T01:41:28;11.02;;;4.97;;
28862;SDS011;15994;51.796;13.006;2023-11-21T01:43:55;13.38;;;4.78;;
28862;SDS011;15994;51.796;13.006;2023-11-21T01:46:23;12.07;;;5.32;;
28862;SDS011;15994;51.796;13.006;2023-11-21T01:48:50;17.45;;;5.28;;
28862;SDS011;15994;51.796;13.006;2023-11-21T01:51:18;15.15;;;5.63;;
28862;SDS011;15994;51.796;13.006;2023-11-21T01:53:45;14.02;;;5.80;;
28862;SDS011;15994;51.796;13.006;2023-11-21T01:56:12;14.40;;;5.30;;
28862;SDS011;15994;51.796;13.006;2023-11-21T01:58:39;11.82;;;5.32;;
28862;SDS011;15994;51.796;13.006;2023-11-21T02:01:07;13.50;;;6.20;;
28862;SDS011;15994;51.796;13.006;2023-11-21T02:03:34;13.32;;;6.25;;
28862;SDS011;15994;51.796;13.006;2023-11-21T02:06:02;14.02;;;6.85;;
28862;SDS011;15994;51.796;13.006;2023-11-21T02:08:30;15.13;;;5.97;;
28862;SDS011;15994;51.796;13.006;2023-11-21T02:10:57;17.13;;;5.78;;
28862;SDS011;15994;51.796;13.006;2023-11-21T02:13:25;14.20;;;6.03;;
28862;SDS011;15994;51.796;13.006;2023-11-21T02:15:52;15.75;;;6.47;;
28862;SDS011;15994;51.796;13.006;2023-11-21T02:18:19;15.77;;;7.30;;
28862;SDS011;15994;51.796;13.006;2023-11-21T02:20:47;19.60;;;7.47;;
28862;SDS011;15994;51.796;13.006;2023-11-21T02:23:14;17.90;;;7.13;;
28862;SDS011;15994;51.796;13.006;2023-11-21T02:25:41;18.23;;;7.53;;
28862;SDS011;15994;51.796;13.006;2023-11-21T02:28:08;18.33;;;7.80;;
28862;SDS011;15994;51.796;13.006;2023-11-21T02:30:37;16.08;;;7.65;;
28862;SDS011;15994;51.796;13.006;2023-11-21T02:33:04;15.10;;;6.85;;
28862;SDS011;15994;51.796;13.006;2023-11-21T02:35:32;16.90;;;7.43;;
28862;SDS011;15994;51.796;13.006;2023-11-21T02:37:59;14.32;;;7.32;;
28862;SDS011;15994;51.796;13.006;2023-11-21T02:40:26;12.35;;;6.57;;
28862;SDS011;15994;51.796;13.006;2023-11-21T02:42:53;21.15;;;7.15;;
28862;SDS011;15994;51.796;13.006;2023-11-21T02:45:23;18.08;;;6.90;;
28862;SDS011;15994;51.796;13.006;2023-11-21T02:47:51;17.05;;;7.63;;
28862;SDS011;15994;51.796;13.006;2023-11-21T02:50:21;19.00;;;7.90;;
28862;SDS011;15994;51.796;13.006;2023-11-21T02:52:48;15.45;;;8.18;;
28862;SDS011;15994;51.796;13.006;2023-11-21T02:55:17;17.02;;;8.23;;
28862;SDS011;15994;51.796;13.006;2023-11-21T02:57:44;18.85;;;8.27;;
28862;SDS011;15994;51.796;13.006;2023-11-21T03:00:11;18.17;;;8.38;;
28862;SDS011;15994;51.796;13.006;2023-11-21T03:02:40;17.10;;;8.70;;
28862;SDS011;15994;51.796;13.006;2023-11-21T03:05:07;23.90;;;8.07;;
28862;SDS011;15994;51.796;13.006;2023-11-21T03:07:35;19.40;;;8.25;;
28862;SDS011;15994;51.796;13.006;2023-11-21T03:10:02;23.08;;;8.75;;
28862;SDS011;15994;51.796;13.006;2023-11-21T03:12:29;22.40;;;9.23;;
28862;SDS011;15994;51.796;13.006;2023-11-21T03:14:56;20.17;;;8.60;;
28862;SDS011;15994;51.796;13.006;2023-11-21T03:17:23;22.38;;;8.90;;
28862;SDS011;15994;51.796;13.006;2023-11-21T03:19:50;20.95;;;9.57;;
28862;SDS011;15994;51.796;13.006;2023-11-21T03:22:18;20.10;;;9.68;;
28862;SDS011;15994;51.796;13.006;2023-11-21T03:24:45;16.20;;;8.57;;
28862;SDS011;15994;51.796;13.006;2023-11-21T03:27:12;23.25;;;9.15;;
28862;SDS011;15994;51.796;13.006;2023-11-21T03:29:39;27.00;;;9.48;;
28862;SDS011;15994;51.796;13.006;2023-11-21T03:32:06;21.23;;;9.27;;
28862;SDS011;15994;51.796;13.006;2023-11-21T03:34:33;20.30;;;8.63;;
28862;SDS011;15994;51.796;13.006;2023-11-21T03:37:00;23.60;;;9.60;;
28862;SDS011;15994;51.796;13.006;2023-11-21T03:39:27;22.67;;;9.82;;
28862;SDS011;15994;51.796;13.006;2023-11-21T03:41:55;18.75;;;9.23;;
28862;SDS011;15994;51.796;13.006;2023-11-21T03:44:22;18.23;;;9.25;;
28862;SDS011;15994;51.796;13.006;2023-11-21T03:46:49;28.65;;;10.65;;
28862;SDS011;15994;51.796;13.006;2023-11-21T03:49:16;19.23;;;9.45;;
28862;SDS011;15994;51.796;13.006;2023-11-21T03:51:43;23.33;;;10.57;;
28862;SDS011;15994;51.796;13.006;2023-11-21T03:54:10;23.77;;;10.15;;
28862;SDS011;15994;51.796;13.006;2023-11-21T03:56:37;21.73;;;9.80;;
28862;SDS011;15994;51.796;13.006;2023-11-21T03:59:04;19.17;;;9.50;;
28862;SDS011;15994;51.796;13.006;2023-11-21T04:01:31;19.95;;;9.38;;
28862;SDS011;15994;51.796;13.006;2023-11-21T04:03:58;25.95;;;10.80;;
28862;SDS011;15994;51.796;13.006;2023-11-21T04:06:25;21.63;;;10.00;;
28862;SDS011;15994;51.796;13.006;2023-11-21T04:08:52;22.23;;;9.85;;
28862;SDS011;15994;51.796;13.006;2023-11-21T04:11:19;19.17;;;9.38;;
28862;SDS011;15994;51.796;13.006;2023-11-21T04:13:46;22.92;;;10.07;;
28862;SDS011;15994;51.796;13.006;2023-11-21T04:16:13;21.15;;;10.23;;
28862;SDS011;15994;51.796;13.006;2023-11-21T04:18:40;17.88;;;9.25;;
28862;SDS011;15994;51.796;13.006;2023-11-21T04:21:07;24.13;;;9.95;;
28862;SDS011;15994;51.796;13.006;2023-11-21T04:23:35;20.52;;;10.07;;
28862;SDS011;15994;51.796;13.006;2023-11-21T04:26:02;22.65;;;10.18;;
28862;SDS011;15994;51.796;13.006;2023-11-21T04:28:29;21.70;;;10.48;;
28862;SDS011;15994;51.796;13.006;2023-11-21T04:30:56;22.83;;;10.90;;
28862;SDS011;15994;51.796;13.006;2023-11-21T04:33:23;21.38;;;10.55;;
28862;SDS011;15994;51.796;13.006;2023-11-21T04:35:50;23.48;;;10.55;;
28862;SDS011;15994;51.796;13.006;2023-11-21T04:38:17;23.02;;;11.70;;
28862;SDS011;15994;51.796;13.006;2023-11-21T04:40:47;19.60;;;10.38;;
28862;SDS011;15994;51.796;13.006;2023-11-21T04:43:13;23.83;;;10.77;;
28862;SDS011;15994;51.796;13.006;2023-11-21T04:45:40;21.98;;;11.02;;
28862;SDS011;15994;51.796;13.006;2023-11-21T04:48:07;20.17;;;11.10;;
28862;SDS011;15994;51.796;13.006;2023-11-21T04:50:35;18.73;;;10.55;;
28862;SDS011;15994;51.796;13.006;2023-11-21T04:53:02;22.10;;;10.70;;
28862;SDS011;15994;51.796;13.006;2023-11-21T04:55:30;18.77;;;10.50;;
28862;SDS011;15994;51.796;13.006;2023-11-21T04:57:57;18.38;;;9.88;;
28862;SDS011;15994;51.796;13.006;2023-11-21T05:00:24;18.88;;;10.55;;
28862;SDS011;15994;51.796;13.006;2023-11-21T05:02:51;20.98;;;10.60;;
28862;SDS011;15994;51.796;13.006;2023-11-21T05:05:18;21.25;;;10.52;;
28862;SDS011;15994;51.796;13.006;2023-11-21T05:07:45;20.15;;;11.40;;
28862;SDS011;15994;51.796;13.006;2023-11-21T05:10:14;22.15;;;11.15;;
28862;SDS011;15994;51.796;13.006;2023-11-21T05:12:41;22.45;;;11.65;;
28862;SDS011;15994;51.796;13.006;2023-11-21T05:15:08;21.38;;;10.80;;
28862;SDS011;15994;51.796;13.006;2023-11-21T05:17:36;22.92;;;11.82;;
28862;SDS011;15994;51.796;13.006;2023-11-21T05:20:04;17.85;;;10.20;;
28862;SDS011;15994;51.796;13.006;2023-11-21T05:22:34;10.70;;;6.78;;
28862;SDS011;15994;51.796;13.006;2023-11-21T05:25:01;8.32;;;5.60;;
28862;SDS011;15994;51.796;13.006;2023-11-21T05:27:29;7.05;;;5.10;;
28862;SDS011;15994;51.796;13.006;2023-11-21T05:29:58;9.63;;;5.22;;
28862;SDS011;15994;51.796;13.006;2023-11-21T05:32:25;7.20;;;4.30;;
28862;SDS011;15994;51.796;13.006;2023-11-21T05:34:52;5.30;;;4.20;;
28862;SDS011;15994;51.796;13.006;2023-11-21T05:37:19;6.45;;;4.60;;
28862;SDS011;15994;51.796;13.006;2023-11-21T05:39:50;6.35;;;4.20;;
28862;SDS011;15994;51.796;13.006;2023-11-21T05:42:17;7.00;;;4.82;;
28862;SDS011;15994;51.796;13.006;2023-11-21T05:44:45;5.18;;;4.25;;
28862;SDS011;15994;51.796;13.006;2023-11-21T05:47:12;6.18;;;3.63;;
28862;SDS011;15994;51.796;13.006;2023-11-21T05:49:39;4.95;;;2.90;;
28862;SDS011;15994;51.796;13.006;2023-11-21T05:52:07;5.05;;;3.30;;
28862;SDS011;15994;51.796;13.006;2023-11-21T05:54:35;5.68;;;3.70;;
28862;SDS011;15994;51.796;13.006;2023-11-21T05:57:02;6.80;;;3.60;;
28862;SDS011;15994;51.796;13.006;2023-11-21T05:59:29;6.13;;;3.55;;
28862;SDS011;15994;51.796;13.006;2023-11-21T06:01:56;4.93;;;3.63;;
28862;SDS011;15994;51.796;13.006;2023-11-21T06:04:23;5.65;;;3.65;;
28862;SDS011;15994;51.796;13.006;2023-11-21T06:06:51;6.65;;;4.10;;
28862;SDS011;15994;51.796;13.006;2023-11-21T06:09:18;7.00;;;4.60;;
28862;SDS011;15994;51.796;13.006;2023-11-21T06:11:46;8.38;;;5.63;;
28862;SDS011;15994;51.796;13.006;2023-11-21T06:14:13;13.20;;;6.63;;
28862;SDS011;15994;51.796;13.006;2023-11-21T06:16:42;11.05;;;6.60;;
28862;SDS011;15994;51.796;13.006;2023-11-21T06:19:10;14.27;;;8.05;;
28862;SDS011;15994;51.796;13.006;2023-11-21T06:21:37;14.32;;;8.68;;
28862;SDS011;15994;51.796;13.006;2023-11-21T06:24:04;15.43;;;9.55;;
28862;SDS011;15994;51.796;13.006;2023-11-21T06:26:32;14.85;;;9.45;;
28862;SDS011;15994;51.796;13.006;2023-11-21T06:28:59;18.75;;;10.32;;
28862;SDS011;15994;51.796;13.006;2023-11-21T06:31:27;16.60;;;9.82;;
28862;SDS011;15994;51.796;13.006;2023-11-21T06:33:55;25.00;;;11.15;;
28862;SDS011;15994;51.796;13.006;2023-11-21T06:36:22;16.88;;;10.73;;
28862;SDS011;15994;51.796;13.006;2023-11-21T06:38:49;19.88;;;11.38;;
28862;SDS011;15994;51.796;13.006;2023-11-21T06:41:24;20.92;;;12.10;;
28862;SDS011;15994;51.796;13.006;2023-11-21T06:43:52;22.60;;;13.07;;
28862;SDS011;15994;51.796;13.006;2023-11-21T06:46:19;23.10;;;13.48;;
28862;SDS011;15994;51.796;13.006;2023-11-21T06:48:46;30.27;;;15.38;;
28862;SDS011;15994;51.796;13.006;2023-11-21T06:51:14;30.25;;;14.98;;
28862;SDS011;15994;51.796;13.006;2023-11-21T06:53:41;31.85;;;17.08;;
28862;SDS011;15994;51.796;13.006;2023-11-21T06:56:17;31.60;;;16.58;;
28862;SDS011;15994;51.796;13.006;2023-11-21T06:58:45;39.25;;;17.55;;
28862;SDS011;15994;51.796;13.006;2023-11-21T07:01:12;36.20;;;18.10;;
28862;SDS011;15994;51.796;13.006;2023-11-21T07:03:41;33.13;;;17.65;;
28862;SDS011;15994;51.796;13.006;2023-11-21T07:06:08;39.25;;;18.60;;
28862;SDS011;15994;51.796;13.006;2023-11-21T07:08:35;35.88;;;18.23;;
28862;SDS011;15994;51.796;13.006;2023-11-21T07:11:05;34.70;;;18.33;;
28862;SDS011;15994;51.796;13.006;2023-11-21T07:13:32;36.35;;;18.98;;
28862;SDS011;15994;51.796;13.006;2023-11-21T07:15:59;35.88;;;19.15;;
28862;SDS011;15994;51.796;13.006;2023-11-21T07:18:26;37.42;;;19.13;;
28862;SDS011;15994;51.796;13.006;2023-11-21T07:20:53;35.15;;;19.50;;
28862;SDS011;15994;51.796;13.006;2023-11-21T07:23:20;33.47;;;19.83;;
28862;SDS011;15994;51.796;13.006;2023-11-21T07:25:49;36.22;;;20.13;;
28862;SDS011;15994;51.796;13.006;2023-11-21T07:28:18;34.83;;;19.75;;
28862;SDS011;15994;51.796;13.006;2023-11-21T07:30:45;32.72;;;20.40;;
28862;SDS011;15994;51.796;13.006;2023-11-21T07:33:12;33.38;;;20.90;;
28862;SDS011;15994;51.796;13.006;2023-11-21T07:35:39;32.17;;;19.50;;
28862;SDS011;15994;51.796;13.006;2023-11-21T07:38:06;35.35;;;21.20;;
28862;SDS011;15994;51.796;13.006;2023-11-21T07:40:33;34.20;;;21.23;;
28862;SDS011;15994;51.796;13.006;2023-11-21T07:43:01;35.15;;;19.88;;
28862;SDS011;15994;51.796;13.006;2023-11-21T07:45:28;36.03;;;19.60;;
28862;SDS011;15994;51.796;13.006;2023-11-21T07:47:55;29.58;;;17.95;;
28862;SDS011;15994;51.796;13.006;2023-11-21T07:50:22;27.40;;;17.25;;
28862;SDS011;15994;51.796;13.006;2023-11-21T07:52:50;25.65;;;16.45;;
28862;SDS011;15994;51.796;13.006;2023-11-21T07:55:19;26.20;;;16.02;;
28862;SDS011;15994;51.796;13.006;2023-11-21T07:57:46;25.73;;;16.27;;
28862;SDS011;15994;51.796;13.006;2023-11-21T08:00:13;25.40;;;15.77;;
28862;SDS011;15994;51.796;13.006;2023-11-21T08:02:40;25.30;;;15.80;;
28862;SDS011;15994;51.796;13.006;2023-11-21T08:05:10;19.67;;;13.60;;
28862;SDS011;15994;51.796;13.006;2023-11-21T08:07:38;23.27;;;13.77;;
28862;SDS011;15994;51.796;13.006;2023-11-21T08:10:05;22.75;;;14.57;;
28862;SDS011;15994;51.796;13.006;2023-11-21T08:12:35;20.80;;;14.05;;
28862;SDS011;15994;51.796;13.006;2023-11-21T08:15:03;21.75;;;14.30;;
28862;SDS011;15994;51.796;13.006;2023-11-21T08:17:30;20.25;;;13.25;;
28862;SDS011;15994;51.796;13.006;2023-11-21T08:19:57;20.13;;;13.60;;
28862;SDS011;15994;51.796;13.006;2023-11-21T08:22:24;18.77;;;11.95;;
28862;SDS011;15994;51.796;13.006;2023-11-21T08:24:51;17.80;;;11.20;;
28862;SDS011;15994;51.796;13.006;2023-11-21T08:27:20;17.17;;;11.40;;
28862;SDS011;15994;51.796;13.006;2023-11-21T08:29:47;16.92;;;11.80;;
28862;SDS011;15994;51.796;13.006;2023-11-21T08:32:15;16.48;;;11.25;;
28862;SDS011;15994;51.796;13.006;2023-11-21T08:34:48;18.90;;;11.18;;
28862;SDS011;15994;51.796;13.006;2023-11-21T08:37:16;16.63;;;11.20;;
28862;SDS011;15994;51.796;13.006;2023-11-21T08:39:44;15.50;;;10.50;;
28862;SDS011;15994;51.796;13.006;2023-11-21T08:42:11;15.98;;;10.82;;
28862;SDS011;15994;51.796;13.006;2023-11-21T08:44:40;15.57;;;10.80;;
28862;SDS011;15994;51.796;13.006;2023-11-21T08:47:07;15.20;;;10.82;;
28862;SDS011;15994;51.796;13.006;2023-11-21T08:49:34;16.25;;;11.07;;
28862;SDS011;15994;51.796;13.006;2023-11-21T08:52:01;15.48;;;10.80;;
28862;SDS011;15994;51.796;13.006;2023-11-21T08:54:30;15.13;;;10.32;;
28862;SDS011;15994;51.796;13.006;2023-11-21T08:57:03;16.80;;;10.63;;
28862;SDS011;15994;51.796;13.006;2023-11-21T08:59:36;16.58;;;10.57;;
28862;SDS011;15994;51.796;13.006;2023-11-21T09:02:03;15.65;;;10.02;;
28862;SDS011;15994;51.796;13.006;2023-11-21T09:04:30;17.45;;;11.13;;
28862;SDS011;15994;51.796;13.006;2023-11-21T09:06:57;16.95;;;10.82;;
28862;SDS011;15994;51.796;13.006;2023-11-21T09:09:26;16.20;;;10.13;;
28862;SDS011;15994;51.796;13.006;2023-11-21T09:11:54;19.90;;;10.63;;
28862;SDS011;15994;51.796;13.006;2023-11-21T09:14:21;17.25;;;9.48;;
28862;SDS011;15994;51.796;13.006;2023-11-21T09:16:50;14.85;;;9.73;;
28862;SDS011;15994;51.796;13.006;2023-11-21T09:19:17;14.75;;;8.93;;
28862;SDS011;15994;51.796;13.006;2023-11-21T09:21:46;14.65;;;9.13;;
28862;SDS011;15994;51.796;13.006;2023-11-21T09:24:18;11.40;;;8.23;;
28862;SDS011;15994;51.796;13.006;2023-11-21T09:26:46;12.93;;;8.70;;
28862;SDS011;15994;51.796;13.006;2023-11-21T09:29:13;11.82;;;8.27;;
28862;SDS011;15994;51.796;13.006;2023-11-21T09:31:46;13.40;;;9.23;;
28862;SDS011;15994;51.796;13.006;2023-11-21T09:34:13;12.15;;;8.50;;
28862;SDS011;15994;51.796;13.006;2023-11-21T09:36:40;12.93;;;8.10;;
28862;SDS011;15994;51.796;13.006;2023-11-21T09:39:07;15.00;;;8.25;;
28862;SDS011;15994;51.796;13.006;2023-11-21T09:41:57;12.15;;;7.85;;
28862;SDS011;15994;51.796;13.006;2023-11-21T09:44:30;12.05;;;7.03;;
28862;SDS011;15994;51.796;13.006;2023-11-21T09:46:59;10.90;;;7.00;;
28862;SDS011;15994;51.796;13.006;2023-11-21T09:49:26;10.57;;;6.55;;
28862;SDS011;15994;51.796;13.006;2023-11-21T09:51:59;9.27;;;6.20;;
28862;SDS011;15994;51.796;13.006;2023-11-21T09:54:29;9.05;;;5.55;;
28862;SDS011;15994;51.796;13.006;2023-11-21T09:57:02;8.63;;;6.30;;
28862;SDS011;15994;51.796;13.006;2023-11-21T09:59:30;10.48;;;6.10;;
28862;SDS011;15994;51.796;13.006;2023-11-21T10:02:00;10.15;;;6.35;;
28862;SDS011;15994;51.796;13.006;2023-11-21T10:04:28;10.27;;;6.65;;
28862;SDS011;15994;51.796;13.006;2023-11-21T10:06:55;10.45;;;6.10;;
28862;SDS011;15994;51.796;13.006;2023-11-21T10:09:23;9.38;;;6.43;;
28862;SDS011;15994;51.796;13.006;2023-11-21T10:11:52;9.48;;;6.45;;
28862;SDS011;15994;51.796;13.006;2023-11-21T10:14:19;8.52;;;5.43;;
28862;SDS011;15994;51.796;13.006;2023-11-21T10:16:49;8.65;;;6.10;;
28862;SDS011;15994;51.796;13.006;2023-11-21T10:19:18;9.88;;;6.00;;
28862;SDS011;15994;51.796;13.006;2023-11-21T10:21:47;8.32;;;5.90;;
28862;SDS011;15994;51.796;13.006;2023-11-21T10:24:14;10.35;;;6.28;;
28862;SDS011;15994;51.796;13.006;2023-11-21T10:26:43;8.15;;;5.80;;
28862;SDS011;15994;51.796;13.006;2023-11-21T10:29:13;10.20;;;5.50;;
28862;SDS011;15994;51.796;13.006;2023-11-21T10:31:43;8.85;;;5.55;;
28862;SDS011;15994;51.796;13.006;2023-11-21T10:34:14;7.78;;;5.40;;
28862;SDS011;15994;51.796;13.006;2023-11-21T10:36:51;9.15;;;5.80;;
28862;SDS011;15994;51.796;13.006;2023-11-21T10:39:18;9.02;;;5.93;;
28862;SDS011;15994;51.796;13.006;2023-11-21T10:41:49;7.50;;;5.13;;
28862;SDS011;15994;51.796;13.006;2023-11-21T10:44:18;7.57;;;5.05;;
28862;SDS011;15994;51.796;13.006;2023-11-21T10:46:50;8.05;;;5.22;;
28862;SDS011;15994;51.796;13.006;2023-11-21T10:49:22;10.52;;;5.38;;
28862;SDS011;15994;51.796;13.006;2023-11-21T10:51:51;8.68;;;5.53;;
28862;SDS011;15994;51.796;13.006;2023-11-21T10:54:23;8.27;;;5.13;;
28862;SDS011;15994;51.796;13.006;2023-11-21T10:56:51;9.40;;;5.93;;
28862;SDS011;15994;51.796;13.006;2023-11-21T10:59:19;9.05;;;5.80;;
28862;SDS011;15994;51.796;13.006;2023-11-21T11:01:51;7.07;;;5.25;;
28862;SDS011;15994;51.796;13.006;2023-11-21T11:04:18;10.32;;;6.18;;
28862;SDS011;15994;51.796;13.006;2023-11-21T11:06:50;8.23;;;5.93;;
28862;SDS011;15994;51.796;13.006;2023-11-21T11:09:17;9.65;;;6.00;;
28862;SDS011;15994;51.796;13.006;2023-11-21T11:11:45;8.52;;;5.82;;
28862;SDS011;15994;51.796;13.006;2023-11-21T11:14:12;9.48;;;6.25;;
28862;SDS011;15994;51.796;13.006;2023-11-21T11:16:40;9.43;;;6.10;;
28862;SDS011;15994;51.796;13.006;2023-11-21T11:19:08;9.20;;;6.15;;
28862;SDS011;15994;51.796;13.006;2023-11-21T11:26:42;10.25;;;5.60;;
28862;SDS011;15994;51.796;13.006;2023-11-21T11:29:14;10.30;;;5.90;;
28862;SDS011;15994;51.796;13.006;2023-11-21T11:34:25;7.78;;;5.57;;
28862;SDS011;15994;51.796;13.006;2023-11-21T11:36:55;9.50;;;6.07;;
28862;SDS011;15994;51.796;13.006;2023-11-21T11:39:33;11.02;;;6.28;;
28862;SDS011;15994;51.796;13.006;2023-11-21T11:42:02;10.15;;;5.75;;
28862;SDS011;15994;51.796;13.006;2023-11-21T11:47:19;8.80;;;6.03;;
28862;SDS011;15994;51.796;13.006;2023-11-21T11:50:00;9.05;;;5.45;;
28862;SDS011;15994;51.796;13.006;2023-11-21T11:52:34;9.20;;;5.97;;
28862;SDS011;15994;51.796;13.006;2023-11-21T11:55:01;8.85;;;5.80;;
28862;SDS011;15994;51.796;13.006;2023-11-21T11:57:29;11.25;;;6.22;;
28862;SDS011;15994;51.796;13.006;2023-11-21T12:00:12;10.77;;;5.60;;
28862;SDS011;15994;51.796;13.006;2023-11-21T12:02:44;10.45;;;5.93;;
28862;SDS011;15994;51.796;13.006;2023-11-21T12:05:13;10.85;;;6.30;;
28862;SDS011;15994;51.796;13.006;2023-11-21T12:08:02;12.18;;;6.38;;
28862;SDS011;15994;51.796;13.006;2023-11-21T12:10:28;12.20;;;6.20;;
28862;SDS011;15994;51.796;13.006;2023-11-21T12:12:56;15.63;;;6.20;;
28862;SDS011;15994;51.796;13.006;2023-11-21T12:15:24;14.38;;;6.35;;
28862;SDS011;15994;51.796;13.006;2023-11-21T12:17:58;12.25;;;6.38;;
28862;SDS011;15994;51.796;13.006;2023-11-21T12:20:29;15.57;;;6.38;;
28862;SDS011;15994;51.796;13.006;2023-11-21T12:22:57;13.00;;;6.88;;
28862;SDS011;15994;51.796;13.006;2023-11-21T12:25:25;13.88;;;6.90;;
28862;SDS011;15994;51.796;13.006;2023-11-21T12:27:54;14.38;;;6.25;;
28862;SDS011;15994;51.796;13.006;2023-11-21T12:30:23;18.67;;;7.32;;
28862;SDS011;15994;51.796;13.006;2023-11-21T12:32:55;15.60;;;6.55;;
28862;SDS011;15994;51.796;13.006;2023-11-21T12:35:23;13.77;;;7.28;;
28862;SDS011;15994;51.796;13.006;2023-11-21T12:37:51;10.18;;;5.93;;
28862;SDS011;15994;51.796;13.006;2023-11-21T12:40:19;11.32;;;6.60;;
28862;SDS011;15994;51.796;13.006;2023-11-21T12:42:48;10.55;;;5.82;;
28862;SDS011;15994;51.796;13.006;2023-11-21T12:47:50;9.07;;;5.85;;
28862;SDS011;15994;51.796;13.006;2023-11-21T12:50:21;9.10;;;5.90;;
28862;SDS011;15994;51.796;13.006;2023-11-21T12:52:51;8.90;;;5.47;;
28862;SDS011;15994;51.796;13.006;2023-11-21T12:55:19;11.85;;;5.63;;
28862;SDS011;15994;51.796;13.006;2023-11-21T12:57:53;10.30;;;5.60;;
28862;SDS011;15994;51.796;13.006;2023-11-21T13:00:33;10.23;;;5.32;;
28862;SDS011;15994;51.796;13.006;2023-11-21T13:03:02;9.85;;;5.53;;
28862;SDS011;15994;51.796;13.006;2023-11-21T13:05:30;10.32;;;5.60;;
28862;SDS011;15994;51.796;13.006;2023-11-21T13:07:59;11.88;;;5.47;;
28862;SDS011;15994;51.796;13.006;2023-11-21T13:10:27;12.40;;;5.40;;
28862;SDS011;15994;51.796;13.006;2023-11-21T13:12:56;10.50;;;5.25;;
28862;SDS011;15994;51.796;13.006;2023-11-21T13:15:25;10.38;;;5.70;;
28862;SDS011;15994;51.796;13.006;2023-11-21T13:17:52;11.23;;;5.47;;
28862;SDS011;15994;51.796;13.006;2023-11-21T13:20:20;9.68;;;5.43;;
28862;SDS011;15994;51.796;13.006;2023-11-21T13:22:50;9.05;;;5.10;;
28862;SDS011;15994;51.796;13.006;2023-11-21T13:25:20;12.38;;;5.78;;
28862;SDS011;15994;51.796;13.006;2023-11-21T13:27:47;10.00;;;5.65;;
28862;SDS011;15994;51.796;13.006;2023-11-21T13:30:14;10.88;;;5.85;;
28862;SDS011;15994;51.796;13.006;2023-11-21T13:32:43;9.23;;;4.82;;
28862;SDS011;15994;51.796;13.006;2023-11-21T13:35:12;11.10;;;5.07;;
28862;SDS011;15994;51.796;13.006;2023-11-21T13:37:46;9.20;;;5.28;;
28862;SDS011;15994;51.796;13.006;2023-11-21T13:40:15;10.90;;;4.60;;
28862;SDS011;15994;51.796;13.006;2023-11-21T13:42:47;9.32;;;3.90;;
28862;SDS011;15994;51.796;13.006;2023-11-21T13:45:14;10.00;;;4.72;;
28862;SDS011;15994;51.796;13.006;2023-11-21T13:47:43;8.88;;;4.53;;
28862;SDS011;15994;51.796;13.006;2023-11-21T13:50:10;11.32;;;4.63;;
28862;SDS011;15994;51.796;13.006;2023-11-21T13:52:42;8.02;;;4.20;;
28862;SDS011;15994;51.796;13.006;2023-11-21T13:55:12;8.18;;;3.92;;
28862;SDS011;15994;51.796;13.006;2023-11-21T13:57:42;8.02;;;4.43;;
28862;SDS011;15994;51.796;13.006;2023-11-21T14:00:12;10.32;;;4.45;;
28862;SDS011;15994;51.796;13.006;2023-11-21T14:03:01;9.75;;;4.20;;
28862;SDS011;15994;51.796;13.006;2023-11-21T14:05:33;7.45;;;4.20;;
28862;SDS011;15994;51.796;13.006;2023-11-21T14:08:00;6.57;;;3.90;;
28862;SDS011;15994;51.796;13.006;2023-11-21T14:10:32;7.57;;;4.25;;
28862;SDS011;15994;51.796;13.006;2023-11-21T14:13:05;8.85;;;4.80;;
28862;SDS011;15994;51.796;13.006;2023-11-21T14:15:32;8.93;;;4.13;;
28862;SDS011;15994;51.796;13.006;2023-11-21T14:18:03;6.82;;;3.58;;
28862;SDS011;15994;51.796;13.006;2023-11-21T14:20:33;7.85;;;3.83;;
28862;SDS011;15994;51.796;13.006;2023-11-21T14:23:01;6.32;;;3.70;;
28862;SDS011;15994;51.796;13.006;2023-11-21T14:25:29;6.05;;;3.72;;
28862;SDS011;15994;51.796;13.006;2023-11-21T14:27:57;5.50;;;3.35;;
28862;SDS011;15994;51.796;13.006;2023-11-21T14:30:24;6.32;;;3.42;;
28862;SDS011;15994;51.796;13.006;2023-11-21T14:32:52;6.07;;;3.67;;
28862;SDS011;15994;51.796;13.006;2023-11-21T14:35:19;6.70;;;3.20;;
28862;SDS011;15994;51.796;13.006;2023-11-21T14:37:46;5.03;;;3.17;;
28862;SDS011;15994;51.796;13.006;2023-11-21T14:40:17;5.25;;;2.95;;
28862;SDS011;15994;51.796;13.006;2023-11-21T14:42:49;5.15;;;3.28;;